createdAt,value
2022-10-05T00:01:22.263Z,1.60
2022-10-05T00:03:50.272Z,1.30
2022-10-05T00:06:18.178Z,1.42
2022-10-05T00:08:45.864Z,1.05
2022-10-05T00:11:15.942Z,1.08
2022-10-05T00:13:43.745Z,1.65
2022-10-05T00:16:20.797Z,1.33
2022-10-05T00:18:50.871Z,1.40
2022-10-05T00:21:24.487Z,1.40
2022-10-05T00:23:52.805Z,1.30
2022-10-05T00:26:33.070Z,1.33
2022-10-05T00:29:02.316Z,1.52
2022-10-05T00:31:36.404Z,1.35
2022-10-05T00:34:04.265Z,1.60
2022-10-05T00:36:32.023Z,1.40
2022-10-05T00:39:01.863Z,1.50
2022-10-05T00:41:49.659Z,1.50
2022-10-05T00:44:43.392Z,1.63
2022-10-05T00:47:43.367Z,1.20
2022-10-05T00:50:36.624Z,1.50
2022-10-05T00:53:28.629Z,1.10
2022-10-05T00:56:27.132Z,1.38
2022-10-05T00:59:26.804Z,2.05
2022-10-05T01:02:06.130Z,1.25
2022-10-05T01:05:02.114Z,1.58
2022-10-05T01:07:49.423Z,1.30
2022-10-05T01:10:31.753Z,1.55
2022-10-05T01:13:09.097Z,1.58
2022-10-05T01:15:51.736Z,1.90
2022-10-05T01:18:30.061Z,1.60
2022-10-05T01:21:06.517Z,1.70
2022-10-05T01:24:10.280Z,1.85
2022-10-05T01:27:04.816Z,1.52
2022-10-05T01:29:45.531Z,1.75
2022-10-05T01:32:32.278Z,1.40
2022-10-05T01:35:21.009Z,1.80
2022-10-05T01:38:12.986Z,1.60
2022-10-05T01:41:06.664Z,1.90
2022-10-05T01:46:32.846Z,1.83
2022-10-05T01:49:21.634Z,1.73
2022-10-05T01:52:13.753Z,1.70
2022-10-05T01:55:11.685Z,1.80
2022-10-05T01:58:00.232Z,2.00
2022-10-05T02:00:30.018Z,2.00
2022-10-05T02:03:03.678Z,2.17
2022-10-05T02:05:44.559Z,1.77
2022-10-05T02:08:19.901Z,1.90
2022-10-05T02:10:54.049Z,1.75
2022-10-05T02:13:29.504Z,1.92
2022-10-05T02:16:01.996Z,1.80
2022-10-05T02:18:36.866Z,2.05
2022-10-05T02:21:08.840Z,2.20
2022-10-05T02:23:40.597Z,1.98
2022-10-05T02:26:11.214Z,2.20
2022-10-05T02:28:47.806Z,2.08
2022-10-05T02:31:20.146Z,1.80
2022-10-05T02:33:47.884Z,2.03
2022-10-05T02:36:23.953Z,2.17
2022-10-05T02:39:13.804Z,2.08
2022-10-05T02:41:53.633Z,2.10
2022-10-05T02:44:53.395Z,2.30
2022-10-05T02:47:42.695Z,2.38
2022-10-05T02:50:30.256Z,2.70
2022-10-05T02:53:19.205Z,2.10
2022-10-05T02:56:11.368Z,2.20
2022-10-05T02:58:52.810Z,2.40
2022-10-05T03:01:31.564Z,2.67
2022-10-05T03:04:19.369Z,2.50
2022-10-05T03:06:55.006Z,2.53
2022-10-05T03:09:25.196Z,1.85
2022-10-05T03:12:23.690Z,2.00
2022-10-05T03:15:07.453Z,1.90
2022-10-05T03:17:50.037Z,2.10
2022-10-05T03:20:34.389Z,1.85
2022-10-05T03:23:05.103Z,1.67
2022-10-05T03:25:54.628Z,2.10
2022-10-05T03:28:57.211Z,2.00
2022-10-05T03:31:42.194Z,1.70
2022-10-05T03:34:17.078Z,1.92
2022-10-05T03:36:59.175Z,1.80
2022-10-05T03:39:46.699Z,1.80
2022-10-05T03:42:30.270Z,1.40
2022-10-05T03:45:05.812Z,1.58
2022-10-05T03:47:56.659Z,1.70
2022-10-05T03:50:57.487Z,1.80
2022-10-05T03:53:31.295Z,1.55
2022-10-05T03:56:23.881Z,1.30
2022-10-05T03:59:00.510Z,1.60
2022-10-05T04:01:54.252Z,1.70
2022-10-05T04:04:40.861Z,2.25
2022-10-05T04:07:20.549Z,1.50
2022-10-05T04:09:50.148Z,1.77
2022-10-05T04:12:32.534Z,1.95
2022-10-05T04:15:07.997Z,1.90
2022-10-05T04:17:42.526Z,1.90
2022-10-05T04:20:38.561Z,1.65
2022-10-05T04:23:19.394Z,1.85
2022-10-05T04:25:54.154Z,1.98
2022-10-05T04:28:57.545Z,1.83
2022-10-05T04:31:48.365Z,1.70
2022-10-05T04:34:40.637Z,1.77
2022-10-05T04:37:16.368Z,1.70
2022-10-05T04:40:01.058Z,2.17
2022-10-05T04:42:38.348Z,1.73
2022-10-05T04:45:20.173Z,1.88
2022-10-05T04:48:15.865Z,1.85
2022-10-05T04:51:09.354Z,1.75
2022-10-05T04:53:48.419Z,2.13
2022-10-05T04:56:28.333Z,1.80
2022-10-05T04:59:25.264Z,1.80
2022-10-05T05:02:11.443Z,1.95
2022-10-05T05:04:58.509Z,2.20
2022-10-05T05:07:49.596Z,2.35
2022-10-05T05:10:48.315Z,1.98
2022-10-05T05:13:50.994Z,1.55
2022-10-05T05:16:32.899Z,1.60
2022-10-05T05:19:26.103Z,1.60
2022-10-05T05:25:00.979Z,1.92
2022-10-05T05:27:43.720Z,2.00
2022-10-05T05:30:37.757Z,1.80
2022-10-05T05:33:19.104Z,1.70
2022-10-05T05:36:14.816Z,2.20
2022-10-05T05:39:10.581Z,1.60
2022-10-05T05:42:28.320Z,1.95
2022-10-05T05:45:00.323Z,1.60
2022-10-05T05:47:38.850Z,1.83
2022-10-05T05:50:32.538Z,1.70
2022-10-05T05:53:20.076Z,1.75
2022-10-05T05:55:54.271Z,1.70
2022-10-05T05:58:29.934Z,1.90
2022-10-05T06:01:30.564Z,2.20
2022-10-05T06:04:29.249Z,1.70
2022-10-05T06:07:01.359Z,1.90
2022-10-05T06:09:39.591Z,2.08
2022-10-05T06:12:12.289Z,1.92
2022-10-05T06:14:50.617Z,1.30
2022-10-05T06:17:27.263Z,1.27
2022-10-05T06:20:03.954Z,1.05
2022-10-05T06:22:39.058Z,1.45
2022-10-05T06:25:34.503Z,1.10
2022-10-05T06:28:14.112Z,1.27
2022-10-05T06:31:02.061Z,1.52
2022-10-05T06:33:52.647Z,1.40
2022-10-05T06:36:42.597Z,1.30
2022-10-05T06:39:35.726Z,1.20
2022-10-05T06:42:37.468Z,1.50
2022-10-05T06:45:19.026Z,1.42
2022-10-05T06:48:17.620Z,1.50
2022-10-05T06:50:52.944Z,1.55
2022-10-05T06:53:34.412Z,1.17
2022-10-05T06:56:10.507Z,1.38
2022-10-05T06:58:55.131Z,1.55
2022-10-05T07:01:37.598Z,1.25
2022-10-05T07:04:34.586Z,1.02
2022-10-05T07:07:25.545Z,1.20
2022-10-05T07:10:17.331Z,1.55
2022-10-05T07:12:58.983Z,1.00
2022-10-05T07:15:45.291Z,1.33
2022-10-05T07:18:34.574Z,1.05
2022-10-05T07:21:31.674Z,1.10
2022-10-05T07:24:25.906Z,1.50
2022-10-05T07:27:25.059Z,1.05
2022-10-05T07:30:04.879Z,1.13
2022-10-05T07:32:46.021Z,1.20
2022-10-05T07:35:50.163Z,1.30
2022-10-05T07:38:46.285Z,1.25
2022-10-05T07:41:33.690Z,0.90
2022-10-05T07:44:24.605Z,1.00
2022-10-05T07:46:57.088Z,1.20
2022-10-05T07:49:51.027Z,1.10
2022-10-05T07:52:33.776Z,1.30
2022-10-05T07:55:20.541Z,1.08
2022-10-05T07:58:02.105Z,2.95
2022-10-05T08:00:49.279Z,1.00
2022-10-05T08:03:29.937Z,1.52
2022-10-05T08:05:59.938Z,1.15
2022-10-05T08:08:38.845Z,1.10
2022-10-05T08:11:17.845Z,0.95
2022-10-05T08:14:01.459Z,1.40
2022-10-05T08:16:36.750Z,1.50
2022-10-05T08:19:23.734Z,0.90
2022-10-05T08:22:08.936Z,1.10
2022-10-05T08:24:59.865Z,1.10
2022-10-05T08:27:47.121Z,1.10
2022-10-05T08:30:16.839Z,1.08
2022-10-05T08:33:10.188Z,1.30
2022-10-05T08:35:44.163Z,1.25
2022-10-05T08:38:17.606Z,1.30
2022-10-05T08:41:22.542Z,1.40
2022-10-05T08:44:25.442Z,1.13
2022-10-05T08:47:13.697Z,1.35
2022-10-05T08:50:03.637Z,1.10
2022-10-05T08:53:08.420Z,1.02
2022-10-05T08:55:58.677Z,1.10
2022-10-05T08:58:57.616Z,1.30
2022-10-05T09:01:50.478Z,1.23
2022-10-05T09:04:33.506Z,0.70
2022-10-05T09:07:15.721Z,1.10
2022-10-05T09:10:14.074Z,0.73
2022-10-05T09:13:16.677Z,0.90
2022-10-05T09:16:04.188Z,1.25
2022-10-05T09:19:04.643Z,1.30
2022-10-05T09:21:56.855Z,0.93
2022-10-05T09:24:36.111Z,0.90
2022-10-05T09:27:15.680Z,1.27
2022-10-05T09:30:13.997Z,1.08
2022-10-05T09:33:13.814Z,1.20
2022-10-05T09:36:16.690Z,1.00
2022-10-05T09:39:13.725Z,1.23
2022-10-05T09:42:03.771Z,1.20
2022-10-05T09:45:11.356Z,1.30
2022-10-05T09:47:56.628Z,1.20
2022-10-05T09:50:44.578Z,1.20
2022-10-05T09:53:41.010Z,0.82
2022-10-05T09:56:29.367Z,0.90
2022-10-05T09:59:18.099Z,0.80
2022-10-05T10:02:27.817Z,1.00
2022-10-05T10:05:26.211Z,1.00
2022-10-05T10:08:29.086Z,1.15
2022-10-05T10:11:18.663Z,1.20
2022-10-05T10:14:12.967Z,1.20
2022-10-05T10:17:15.921Z,1.52
2022-10-05T10:20:07.031Z,1.38
2022-10-05T10:22:56.196Z,1.30
2022-10-05T10:25:47.895Z,1.10
2022-10-05T10:28:37.995Z,1.00
2022-10-05T10:31:26.790Z,1.20
2022-10-05T10:34:29.494Z,1.08
2022-10-05T10:37:32.718Z,1.05
2022-10-05T10:40:23.788Z,0.95
2022-10-05T10:43:26.790Z,1.00
2022-10-05T10:46:25.081Z,0.83
2022-10-05T10:49:23.724Z,1.00
2022-10-05T10:52:10.953Z,1.20
2022-10-05T10:55:10.321Z,0.80
2022-10-05T10:58:05.480Z,1.20
2022-10-05T11:00:50.682Z,0.90
2022-10-05T11:03:44.048Z,0.85
2022-10-05T11:06:34.030Z,0.60
2022-10-05T11:09:33.430Z,1.10
2022-10-05T11:12:36.406Z,0.80
2022-10-05T11:15:33.316Z,0.60
2022-10-05T11:18:22.718Z,0.80
2022-10-05T11:21:18.935Z,1.10
2022-10-05T11:24:21.531Z,0.88
2022-10-05T11:27:23.502Z,0.60
2022-10-05T11:30:16.607Z,0.82
2022-10-05T11:33:11.602Z,0.80
2022-10-05T11:36:02.097Z,1.30
2022-10-05T11:39:00.003Z,0.90
2022-10-05T11:42:02.716Z,1.00
2022-10-05T11:45:02.732Z,0.90
2022-10-05T11:47:45.844Z,0.93
2022-10-05T11:50:25.335Z,0.75
2022-10-05T11:53:11.492Z,1.20
2022-10-05T11:56:04.563Z,1.20
2022-10-05T11:58:37.536Z,0.80
2022-10-05T12:01:22.414Z,1.30
2022-10-05T12:04:13.820Z,0.80
2022-10-05T12:07:09.808Z,0.70
2022-10-05T12:10:14.208Z,0.95
2022-10-05T12:12:52.624Z,1.20
2022-10-05T12:15:27.070Z,1.00
2022-10-05T12:18:08.635Z,1.30
2022-10-05T12:20:56.607Z,0.90
2022-10-05T12:23:35.201Z,1.20
2022-10-05T12:26:11.267Z,1.30
2022-10-05T12:28:46.579Z,0.90
2022-10-05T12:31:31.704Z,0.90
2022-10-05T12:34:15.416Z,0.70
2022-10-05T12:37:08.761Z,1.00
2022-10-05T12:40:06.643Z,1.00
2022-10-05T12:42:51.410Z,1.17
2022-10-05T12:45:35.053Z,1.10
2022-10-05T12:48:32.627Z,1.40
2022-10-05T12:51:12.816Z,1.30
2022-10-05T12:53:53.882Z,1.20
2022-10-05T12:56:40.348Z,1.35
2022-10-05T12:59:25.817Z,1.58
2022-10-05T13:02:18.174Z,1.10
2022-10-05T13:05:17.014Z,1.00
2022-10-05T13:08:07.718Z,0.80
2022-10-05T13:11:01.990Z,0.90
2022-10-05T13:13:56.046Z,1.20
2022-10-05T13:16:38.762Z,1.00
2022-10-05T13:19:28.784Z,0.90
2022-10-05T13:22:18.881Z,1.30
2022-10-05T13:25:10.849Z,1.02
2022-10-05T13:27:59.194Z,1.20
2022-10-05T13:30:27.349Z,1.58
2022-10-05T13:33:05.148Z,1.20
2022-10-05T13:36:00.550Z,1.60
2022-10-05T13:38:49.929Z,1.10
2022-10-05T13:41:26.861Z,1.60
2022-10-05T13:44:14.502Z,1.20
2022-10-05T13:46:58.796Z,1.33
2022-10-05T13:49:41.999Z,1.15
2022-10-05T13:52:35.574Z,1.13
2022-10-05T13:55:34.205Z,1.30
2022-10-05T13:58:21.264Z,1.10
2022-10-05T14:00:55.598Z,1.48
2022-10-05T14:03:36.798Z,0.98
2022-10-05T14:06:15.073Z,1.40
2022-10-05T14:08:53.180Z,1.13
2022-10-05T14:11:34.439Z,1.00
2022-10-05T14:14:20.532Z,1.10
2022-10-05T14:16:56.362Z,1.25
2022-10-05T14:19:28.369Z,1.00
2022-10-05T14:22:15.866Z,1.13
2022-10-05T14:24:56.262Z,1.05
2022-10-05T14:27:29.200Z,0.90
2022-10-05T14:30:01.796Z,1.10
2022-10-05T14:32:34.789Z,1.38
2022-10-05T14:35:18.796Z,1.15
2022-10-05T14:37:57.456Z,1.52
2022-10-05T14:40:31.293Z,1.10
2022-10-05T14:43:02.819Z,1.40
2022-10-05T14:45:30.942Z,1.10
2022-10-05T14:48:11.491Z,1.30
2022-10-05T14:50:53.543Z,1.25
2022-10-05T14:53:25.211Z,1.00
2022-10-05T14:56:17.508Z,1.20
2022-10-05T14:59:14.318Z,1.63
2022-10-05T15:01:54.279Z,1.67
2022-10-05T15:04:43.155Z,1.80
2022-10-05T15:07:25.492Z,1.90
2022-10-05T15:10:05.239Z,1.05
2022-10-05T15:12:40.888Z,1.20
2022-10-05T15:15:28.949Z,1.20
2022-10-05T15:18:01.872Z,0.98
2022-10-05T15:21:00.212Z,1.38
2022-10-05T15:23:38.166Z,1.20
2022-10-05T15:26:32.430Z,1.13
2022-10-05T15:29:10.913Z,1.20
2022-10-05T15:31:55.295Z,1.20
2022-10-05T15:34:44.838Z,1.13
2022-10-05T15:37:22.785Z,1.10
2022-10-05T15:40:00.382Z,1.27
2022-10-05T15:42:38.854Z,1.40
2022-10-05T15:45:30.979Z,1.30
2022-10-05T15:48:20.751Z,1.08
2022-10-05T15:51:01.365Z,1.35
2022-10-05T15:53:40.469Z,1.40
2022-10-05T15:56:22.162Z,1.20
2022-10-05T15:59:07.464Z,1.60
2022-10-05T16:02:01.055Z,1.48
2022-10-05T16:05:04.488Z,1.40
2022-10-05T16:10:27.174Z,1.23
2022-10-05T16:13:21.603Z,1.10
2022-10-05T16:15:58.423Z,1.27
2022-10-05T16:19:01.325Z,1.35
2022-10-05T16:21:41.534Z,1.50
2022-10-05T16:24:25.005Z,1.35
2022-10-05T16:27:01.063Z,1.23
2022-10-05T16:29:50.960Z,1.10
2022-10-05T16:32:30.801Z,2.42
2022-10-05T16:35:29.568Z,1.00
2022-10-05T16:38:10.943Z,1.20
2022-10-05T16:40:50.893Z,1.95
2022-10-05T16:43:51.050Z,1.25
2022-10-05T16:46:46.560Z,1.05
2022-10-05T16:49:40.291Z,1.38
2022-10-05T16:54:49.205Z,1.42
2022-10-05T16:57:22.708Z,1.20
2022-10-05T17:00:16.186Z,1.13
2022-10-05T17:05:47.964Z,3.27
2022-10-05T17:08:46.298Z,1.00
2022-10-05T17:11:42.730Z,1.02
2022-10-05T17:14:41.353Z,0.98
2022-10-05T17:17:30.751Z,1.00
2022-10-05T17:20:25.629Z,1.10
2022-10-05T17:22:59.393Z,1.00
2022-10-05T17:25:45.306Z,1.83
2022-10-05T17:28:45.047Z,1.20
2022-10-05T17:31:17.440Z,1.17
2022-10-05T17:34:20.442Z,1.30
2022-10-05T17:36:51.572Z,1.27
2022-10-05T17:39:22.158Z,1.52
2022-10-05T17:41:50.138Z,1.30
2022-10-05T17:44:22.710Z,1.38
2022-10-05T17:46:53.435Z,1.52
2022-10-05T17:49:47.218Z,1.35
2022-10-05T17:52:45.475Z,1.30
2022-10-05T17:55:42.996Z,1.25
2022-10-05T17:58:45.654Z,1.60
2022-10-05T18:01:17.437Z,1.45
2022-10-05T18:03:50.581Z,1.58
2022-10-05T18:06:35.551Z,1.42
2022-10-05T18:09:29.512Z,1.00
2022-10-05T18:12:25.742Z,1.20
2022-10-05T18:15:22.943Z,0.73
2022-10-05T18:17:58.572Z,1.25
2022-10-05T18:20:36.320Z,1.20
2022-10-05T18:23:27.490Z,1.20
2022-10-05T18:26:29.951Z,1.40
2022-10-05T18:29:40.152Z,1.42
2022-10-05T18:32:35.158Z,1.65
2022-10-05T18:35:12.818Z,1.70
2022-10-05T18:37:55.891Z,1.65
2022-10-05T18:40:38.467Z,1.67
2022-10-05T18:43:30.175Z,1.42
2022-10-05T18:46:25.148Z,1.42
2022-10-05T18:49:18.234Z,2.58
2022-10-05T18:51:53.761Z,1.67
2022-10-05T18:54:57.849Z,2.05
2022-10-05T18:57:47.984Z,1.77
2022-10-05T19:00:21.099Z,1.80
2022-10-05T19:05:49.230Z,1.50
2022-10-05T19:08:41.090Z,1.60
2022-10-05T19:11:23.494Z,1.75
2022-10-05T19:14:17.389Z,1.70
2022-10-05T19:17:08.610Z,15.95
2022-10-05T19:19:57.074Z,11.77
2022-10-05T19:22:48.877Z,8.82
2022-10-05T19:25:43.630Z,3.67
2022-10-05T19:28:35.683Z,3.70
2022-10-05T19:31:30.802Z,2.92
2022-10-05T19:34:20.807Z,2.58
2022-10-05T19:37:04.222Z,2.25
2022-10-05T19:39:54.014Z,2.22
2022-10-05T19:42:44.654Z,2.60
2022-10-05T19:45:23.809Z,2.00
2022-10-05T19:48:17.216Z,2.13
2022-10-05T19:51:04.991Z,1.98
2022-10-05T19:53:40.066Z,2.50
2022-10-05T19:56:21.139Z,1.70
2022-10-05T19:58:58.290Z,1.90
2022-10-05T20:01:35.273Z,2.30
2022-10-05T20:04:05.543Z,2.85
2022-10-05T20:06:34.187Z,2.42
2022-10-05T20:09:19.908Z,2.22
2022-10-05T20:11:52.540Z,2.20
2022-10-05T20:14:30.597Z,2.35
2022-10-05T20:17:32.357Z,2.20
2022-10-05T20:20:22.900Z,2.17
2022-10-05T20:22:50.931Z,2.00
2022-10-05T20:25:37.427Z,2.00
2022-10-05T20:28:06.913Z,2.30
2022-10-05T20:30:36.157Z,2.50
2022-10-05T20:33:10.711Z,2.92
2022-10-05T20:35:39.611Z,2.10
2022-10-05T20:38:10.317Z,2.10
2022-10-05T20:40:40.176Z,1.83
2022-10-05T20:43:10.033Z,2.30
2022-10-05T20:45:43.445Z,1.85
2022-10-05T20:48:11.774Z,1.85
2022-10-05T20:50:40.132Z,2.00
2022-10-05T20:53:11.743Z,1.48
2022-10-05T20:55:40.256Z,1.30
2022-10-05T20:58:09.302Z,1.52
2022-10-05T21:00:52.756Z,1.35
2022-10-05T21:03:20.903Z,1.63
2022-10-05T21:05:48.911Z,1.50
2022-10-05T21:08:18.098Z,1.63
2022-10-05T21:10:45.921Z,4.95
2022-10-05T21:13:14.222Z,1.35
2022-10-05T21:15:42.183Z,1.77
2022-10-05T21:18:09.675Z,1.85
2022-10-05T21:20:37.490Z,1.80
2022-10-05T21:23:05.014Z,1.60
2022-10-05T21:25:34.038Z,1.88
2022-10-05T21:28:02.653Z,1.70
2022-10-05T21:30:30.591Z,1.63
2022-10-05T21:32:58.545Z,1.95
2022-10-05T21:35:26.262Z,1.35
2022-10-05T21:37:54.195Z,1.23
2022-10-05T21:40:24.068Z,1.40
2022-10-05T21:42:52.071Z,1.98
2022-10-05T21:45:20.215Z,1.45
2022-10-05T21:47:48.160Z,1.45
2022-10-05T21:50:16.071Z,1.70
2022-10-05T21:52:43.952Z,1.40
2022-10-05T21:55:12.205Z,1.38
2022-10-05T21:57:41.463Z,1.75
2022-10-05T22:00:10.676Z,1.48
2022-10-05T22:02:38.549Z,1.70
2022-10-05T22:05:06.789Z,1.60
2022-10-05T22:07:35.345Z,1.40
2022-10-05T22:10:03.590Z,1.63
2022-10-05T22:12:31.637Z,1.63
2022-10-05T22:14:59.748Z,1.73
2022-10-05T22:17:32.444Z,1.52
2022-10-05T22:20:01.045Z,1.60
2022-10-05T22:22:29.761Z,1.90
2022-10-05T22:24:57.996Z,2.00
2022-10-05T22:27:28.273Z,1.65
2022-10-05T22:29:57.408Z,2.30
2022-10-05T22:32:25.601Z,1.52
2022-10-05T22:34:53.781Z,1.83
2022-10-05T22:37:21.735Z,1.40
2022-10-05T22:39:49.949Z,1.48
2022-10-05T22:42:17.830Z,1.40
2022-10-05T22:44:45.864Z,1.80
2022-10-05T22:47:13.692Z,1.40
2022-10-05T22:49:41.610Z,1.48
2022-10-05T22:52:09.205Z,1.80
2022-10-05T22:54:37.573Z,1.98
2022-10-05T22:57:05.868Z,1.70
2022-10-05T22:59:33.882Z,2.03
2022-10-05T23:02:01.959Z,1.65
2022-10-05T23:04:30.363Z,2.15
2022-10-05T23:06:58.136Z,1.90
2022-10-05T23:09:26.079Z,2.05
2022-10-05T23:11:54.677Z,1.90
2022-10-05T23:14:23.344Z,1.55
2022-10-05T23:16:51.830Z,1.67
2022-10-05T23:19:19.942Z,1.50
2022-10-05T23:21:47.900Z,1.92
2022-10-05T23:24:15.582Z,1.60
2022-10-05T23:26:43.109Z,1.63
2022-10-05T23:29:11.238Z,1.80
2022-10-05T23:31:38.855Z,1.75
2022-10-05T23:34:07.244Z,1.90
2022-10-05T23:36:36.760Z,2.10
2022-10-05T23:39:04.925Z,1.60
2022-10-05T23:41:33.302Z,1.60
2022-10-05T23:44:01.685Z,2.00
2022-10-05T23:46:29.632Z,1.80
2022-10-05T23:48:57.239Z,1.50
2022-10-05T23:51:25.079Z,1.85
2022-10-05T23:53:53.076Z,1.60
2022-10-05T23:56:21.017Z,1.75
2022-10-05T23:58:48.985Z,1.58
